createdAt,value
2018-07-08T00:01:14.954Z,17.97
2018-07-08T00:03:43.192Z,18.03
2018-07-08T00:06:12.171Z,20.50
2018-07-08T00:08:40.414Z,17.53
2018-07-08T00:11:09.622Z,20.03
2018-07-08T00:13:37.860Z,21.83
2018-07-08T00:16:06.179Z,18.30
2018-07-08T00:18:34.422Z,21.40
2018-07-08T00:21:02.659Z,21.23
2018-07-08T00:23:30.879Z,15.03
2018-07-08T00:25:59.102Z,17.47
2018-07-08T00:28:27.326Z,15.30
2018-07-08T00:30:55.535Z,21.73
2018-07-08T00:33:23.750Z,19.10
2018-07-08T00:35:51.960Z,16.83
2018-07-08T00:38:20.505Z,17.10
2018-07-08T00:40:48.714Z,19.57
2018-07-08T00:43:16.934Z,23.77
2018-07-08T00:45:45.179Z,19.60
2018-07-08T00:48:13.413Z,18.80
2018-07-08T00:50:41.640Z,23.03
2018-07-08T00:53:09.916Z,16.33
2018-07-08T00:55:38.118Z,20.00
2018-07-08T00:58:07.069Z,16.20
2018-07-08T01:00:38.965Z,17.03
2018-07-08T01:03:09.119Z,13.73
2018-07-08T01:05:37.317Z,13.50
2018-07-08T01:08:05.694Z,22.27
2018-07-08T01:10:34.017Z,16.93
2018-07-08T01:13:02.780Z,15.33
2018-07-08T01:15:31.010Z,15.00
2018-07-08T01:17:59.218Z,14.57
2018-07-08T01:20:27.427Z,13.53
2018-07-08T01:22:55.667Z,11.90
2018-07-08T01:25:35.243Z,17.33
2018-07-08T01:28:03.474Z,12.37
2018-07-08T01:30:31.714Z,19.80
2018-07-08T01:32:59.926Z,11.60
2018-07-08T01:35:28.223Z,17.37
2018-07-08T01:37:56.435Z,16.57
2018-07-08T01:40:24.682Z,11.40
2018-07-08T01:42:52.885Z,19.63
2018-07-08T01:45:21.090Z,15.23
2018-07-08T01:47:49.286Z,12.53
2018-07-08T01:50:17.542Z,15.97
2018-07-08T01:52:45.807Z,15.50
2018-07-08T01:55:14.402Z,16.03
2018-07-08T01:57:42.668Z,15.03
2018-07-08T02:00:10.910Z,10.53
2018-07-08T02:02:39.255Z,17.13
2018-07-08T02:05:07.470Z,14.63
2018-07-08T02:07:35.706Z,14.10
2018-07-08T02:10:03.918Z,14.20
2018-07-08T02:12:32.271Z,11.60
2018-07-08T02:15:00.501Z,13.97
2018-07-08T02:17:28.738Z,20.40
2018-07-08T02:19:56.962Z,19.60
2018-07-08T02:22:25.214Z,14.00
2018-07-08T02:24:53.466Z,12.50
2018-07-08T02:27:22.396Z,18.20
2018-07-08T02:29:50.621Z,10.93
2018-07-08T02:32:18.835Z,12.60
2018-07-08T02:34:47.104Z,14.07
2018-07-08T02:37:15.446Z,15.50
2018-07-08T02:39:44.014Z,16.57
2018-07-08T02:42:12.256Z,13.50
2018-07-08T02:44:40.756Z,15.70
2018-07-08T02:47:09.007Z,10.73
2018-07-08T02:49:37.218Z,14.47
2018-07-08T02:52:05.515Z,11.80
2018-07-08T02:54:33.734Z,25.47
2018-07-08T02:57:01.952Z,14.30
2018-07-08T02:59:30.157Z,12.17
2018-07-08T03:01:58.374Z,17.73
2018-07-08T03:04:26.574Z,18.30
2018-07-08T03:06:54.823Z,20.77
2018-07-08T03:09:23.039Z,19.53
2018-07-08T03:11:51.252Z,16.40
2018-07-08T03:14:19.504Z,19.60
2018-07-08T03:16:47.735Z,18.00
2018-07-08T03:19:15.947Z,13.47
2018-07-08T03:21:44.607Z,14.03
2018-07-08T03:24:12.829Z,21.37
2018-07-08T03:26:41.054Z,21.03
2018-07-08T03:29:09.282Z,21.03
2018-07-08T03:31:37.470Z,14.80
2018-07-08T03:34:05.675Z,19.47
2018-07-08T03:36:33.891Z,17.10
2018-07-08T03:39:02.148Z,16.17
2018-07-08T03:41:30.342Z,14.40
2018-07-08T03:43:58.543Z,21.43
2018-07-08T03:46:26.744Z,15.50
2018-07-08T03:48:54.955Z,16.20
2018-07-08T03:51:23.150Z,14.13
2018-07-08T03:53:51.359Z,14.03
2018-07-08T03:56:19.564Z,15.70
2018-07-08T03:58:47.773Z,16.17
2018-07-08T04:01:15.961Z,11.97
2018-07-08T04:03:44.167Z,17.13
2018-07-08T04:06:12.399Z,16.77
2018-07-08T04:08:40.606Z,23.70
2018-07-08T04:11:09.129Z,21.00
2018-07-08T04:13:37.346Z,16.07
2018-07-08T04:16:06.784Z,13.43
2018-07-08T04:18:35.012Z,15.40
2018-07-08T04:21:03.223Z,16.20
2018-07-08T04:23:31.423Z,17.83
2018-07-08T04:25:59.632Z,16.87
2018-07-08T04:28:27.857Z,13.97
2018-07-08T04:30:56.059Z,16.83
2018-07-08T04:33:24.251Z,22.83
2018-07-08T04:35:52.450Z,16.87
2018-07-08T04:38:20.680Z,17.00
2018-07-08T04:40:48.886Z,19.53
2018-07-08T04:43:17.091Z,15.50
2018-07-08T04:45:45.281Z,15.67
2018-07-08T04:48:13.494Z,15.47
2018-07-08T04:50:41.693Z,18.70
2018-07-08T04:53:09.882Z,17.63
2018-07-08T04:55:38.111Z,12.93
2018-07-08T04:58:06.318Z,12.30
2018-07-08T05:00:34.535Z,17.70
2018-07-08T05:03:02.776Z,13.67
2018-07-08T05:05:30.983Z,13.03
2018-07-08T05:07:59.215Z,15.63
2018-07-08T05:10:27.418Z,14.60
2018-07-08T05:12:55.621Z,13.50
2018-07-08T05:15:23.851Z,16.07
2018-07-08T05:17:52.085Z,14.93
2018-07-08T05:20:20.377Z,14.90
2018-07-08T05:22:48.555Z,15.23
2018-07-08T05:25:16.743Z,18.40
2018-07-08T05:27:44.941Z,18.30
2018-07-08T05:30:13.138Z,19.43
2018-07-08T05:32:41.338Z,15.07
2018-07-08T05:35:09.563Z,17.87
2018-07-08T05:37:37.762Z,23.27
2018-07-08T05:40:06.002Z,13.23
2018-07-08T05:42:34.211Z,20.67
2018-07-08T05:45:02.420Z,15.50
2018-07-08T05:47:30.618Z,17.40
2018-07-08T05:49:58.823Z,17.17
2018-07-08T05:52:27.030Z,16.30
2018-07-08T05:54:55.239Z,29.53
2018-07-08T05:57:23.455Z,16.30
2018-07-08T05:59:51.647Z,16.87
2018-07-08T06:02:19.856Z,12.07
2018-07-08T06:04:48.079Z,11.87
2018-07-08T06:07:16.319Z,18.50
2018-07-08T06:09:44.543Z,19.23
2018-07-08T06:12:12.768Z,14.83
2018-07-08T06:14:41.022Z,21.00
2018-07-08T06:17:09.284Z,13.93
2018-07-08T06:19:37.558Z,16.43
2018-07-08T06:22:05.875Z,19.00
2018-07-08T06:24:34.110Z,15.03
2018-07-08T06:27:02.339Z,13.60
2018-07-08T06:29:30.570Z,12.57
2018-07-08T06:31:58.783Z,25.53
2018-07-08T06:34:27.015Z,20.33
2018-07-08T06:36:55.297Z,15.70
2018-07-08T06:39:23.512Z,20.90
2018-07-08T06:41:51.759Z,18.63
2018-07-08T06:44:19.946Z,12.90
2018-07-08T06:46:48.172Z,14.70
2018-07-08T06:49:16.459Z,13.30
2018-07-08T06:51:44.748Z,15.67
2018-07-08T06:54:12.983Z,14.20
2018-07-08T06:56:41.210Z,12.50
2018-07-08T06:59:09.447Z,15.83
2018-07-08T07:01:37.658Z,16.30
2018-07-08T07:04:06.087Z,12.23
2018-07-08T07:06:34.314Z,12.57
2018-07-08T07:09:02.566Z,11.17
2018-07-08T07:11:30.783Z,11.87
2018-07-08T07:13:59.010Z,12.60
2018-07-08T07:16:27.231Z,16.60
2018-07-08T07:18:55.467Z,11.50
2018-07-08T07:21:23.690Z,12.43
2018-07-08T07:23:51.894Z,10.93
2018-07-08T07:26:20.103Z,10.77
2018-07-08T07:28:48.315Z,12.43
2018-07-08T07:31:16.507Z,13.97
2018-07-08T07:33:44.723Z,14.27
2018-07-08T07:36:12.983Z,14.73
2018-07-08T07:38:41.216Z,17.73
2018-07-08T07:41:09.427Z,17.63
2018-07-08T07:43:37.647Z,14.80
2018-07-08T07:46:06.123Z,14.40
2018-07-08T07:48:34.336Z,14.33
2018-07-08T07:51:02.526Z,17.53
2018-07-08T07:53:30.779Z,13.73
2018-07-08T07:55:58.970Z,15.77
2018-07-08T07:58:27.196Z,14.20
2018-07-08T08:00:55.431Z,12.70
2018-07-08T08:03:23.723Z,19.00
2018-07-08T08:05:52.028Z,12.77
2018-07-08T08:08:20.265Z,15.83
2018-07-08T08:10:48.537Z,9.20
2018-07-08T08:13:16.699Z,13.27
2018-07-08T08:15:44.915Z,13.67
2018-07-08T08:18:13.126Z,13.30
2018-07-08T08:20:41.334Z,15.67
2018-07-08T08:23:09.555Z,10.20
2018-07-08T08:25:38.872Z,10.20
2018-07-08T08:28:07.165Z,12.60
2018-07-08T08:30:35.386Z,10.13
2018-07-08T08:33:03.596Z,11.00
2018-07-08T08:35:36.209Z,14.17
2018-07-08T08:38:19.808Z,11.60
2018-07-08T08:40:49.195Z,19.77
2018-07-08T08:43:17.530Z,17.13
2018-07-08T08:45:45.735Z,16.10
2018-07-08T08:48:13.994Z,10.77
2018-07-08T08:50:42.227Z,10.10
2018-07-08T08:53:10.514Z,8.70
2018-07-08T08:55:38.715Z,16.13
2018-07-08T08:58:06.918Z,9.90
2018-07-08T09:00:35.099Z,9.40
2018-07-08T09:03:03.335Z,9.53
2018-07-08T09:05:31.558Z,10.50
2018-07-08T09:07:59.759Z,7.70
2018-07-08T09:10:27.959Z,14.23
2018-07-08T09:12:56.250Z,15.83
2018-07-08T09:15:24.485Z,9.73
2018-07-08T09:17:52.776Z,14.73
2018-07-08T09:20:20.979Z,8.87
2018-07-08T09:22:49.171Z,8.70
2018-07-08T09:25:17.370Z,8.10
2018-07-08T09:27:46.651Z,7.83
2018-07-08T09:30:14.863Z,13.50
2018-07-08T09:32:43.188Z,14.73
2018-07-08T09:35:11.436Z,12.63
2018-07-08T09:37:39.680Z,11.33
2018-07-08T09:40:07.993Z,9.03
2018-07-08T09:42:36.278Z,11.33
2018-07-08T09:45:04.583Z,10.87
2018-07-08T09:47:32.817Z,13.20
2018-07-08T09:50:01.166Z,11.77
2018-07-08T09:52:29.468Z,9.10
2018-07-08T09:54:57.690Z,8.20
2018-07-08T09:57:25.951Z,12.13
2018-07-08T09:59:54.367Z,10.70
2018-07-08T10:02:22.596Z,9.27
2018-07-08T10:04:50.934Z,11.13
2018-07-08T10:07:19.127Z,9.33
2018-07-08T10:09:47.347Z,9.83
2018-07-08T10:12:15.611Z,11.37
2018-07-08T10:14:44.120Z,11.57
2018-07-08T10:17:12.528Z,9.93
2018-07-08T10:19:40.831Z,8.90
2018-07-08T10:22:08.990Z,13.33
2018-07-08T10:24:37.211Z,19.13
2018-07-08T10:27:19.471Z,8.00
2018-07-08T10:29:48.342Z,7.60
2018-07-08T10:32:16.758Z,12.57
2018-07-08T10:34:46.205Z,10.30
2018-07-08T10:37:14.645Z,8.07
2018-07-08T10:39:43.263Z,13.57
2018-07-08T10:42:11.671Z,15.87
2018-07-08T10:44:40.736Z,9.47
2018-07-08T10:47:09.431Z,10.77
2018-07-08T10:49:37.738Z,20.13
2018-07-08T10:52:05.970Z,11.43
2018-07-08T10:54:34.234Z,7.63
2018-07-08T10:57:02.552Z,10.17
2018-07-08T10:59:31.186Z,9.13
2018-07-08T11:01:59.808Z,11.60
2018-07-08T11:04:28.498Z,11.10
2018-07-08T11:06:56.823Z,10.67
2018-07-08T11:09:25.115Z,12.00
2018-07-08T11:11:53.367Z,8.27
2018-07-08T11:14:21.570Z,9.30
2018-07-08T11:16:49.906Z,8.40
2018-07-08T11:19:18.179Z,12.13
2018-07-08T11:21:46.446Z,7.60
2018-07-08T11:24:14.783Z,10.73
2018-07-08T11:26:43.062Z,12.53
2018-07-08T11:29:11.322Z,9.40
2018-07-08T11:31:39.555Z,13.70
2018-07-08T11:34:07.766Z,11.07
2018-07-08T11:36:35.987Z,8.53
2018-07-08T11:39:04.479Z,9.97
2018-07-08T11:41:32.739Z,8.97
2018-07-08T11:44:00.983Z,12.10
2018-07-08T11:46:29.255Z,15.07
2018-07-08T11:48:57.493Z,8.70
2018-07-08T11:51:25.703Z,11.10
2018-07-08T11:53:53.922Z,11.10
2018-07-08T11:56:22.175Z,12.33
2018-07-08T11:58:50.674Z,10.60
2018-07-08T12:01:18.891Z,8.37
2018-07-08T12:03:47.139Z,10.30
2018-07-08T12:06:15.398Z,7.83
2018-07-08T12:08:43.679Z,11.30
2018-07-08T12:11:11.907Z,8.13
2018-07-08T12:13:40.203Z,13.97
2018-07-08T12:16:08.443Z,10.77
2018-07-08T12:18:36.688Z,7.03
2018-07-08T12:21:04.958Z,12.50
2018-07-08T12:23:33.359Z,11.90
2018-07-08T12:26:01.607Z,7.50
2018-07-08T12:28:29.861Z,13.60
2018-07-08T12:30:58.075Z,7.47
2018-07-08T12:33:26.274Z,10.03
2018-07-08T12:35:54.511Z,11.63
2018-07-08T12:38:22.710Z,8.53
2018-07-08T12:40:50.921Z,13.57
2018-07-08T12:43:19.157Z,11.63
2018-07-08T12:45:47.399Z,7.20
2018-07-08T12:48:15.623Z,9.90
2018-07-08T12:50:43.852Z,7.17
2018-07-08T12:53:12.115Z,16.33
2018-07-08T12:55:40.334Z,8.17
2018-07-08T12:58:08.583Z,10.57
2018-07-08T13:00:36.815Z,8.57
2018-07-08T13:03:05.037Z,11.37
2018-07-08T13:05:33.284Z,10.60
2018-07-08T13:08:01.492Z,10.83
2018-07-08T13:10:29.826Z,9.80
2018-07-08T13:12:58.443Z,8.00
2018-07-08T13:15:26.654Z,10.40
2018-07-08T13:17:54.882Z,9.90
2018-07-08T13:20:23.119Z,7.50
2018-07-08T13:22:51.295Z,7.53
2018-07-08T13:25:19.514Z,7.90
2018-07-08T13:27:48.536Z,6.57
2018-07-08T13:30:16.795Z,9.20
2018-07-08T13:32:44.999Z,12.23
2018-07-08T13:35:13.211Z,6.73
2018-07-08T13:37:41.411Z,10.17
2018-07-08T13:40:09.639Z,9.03
2018-07-08T13:42:37.846Z,6.57
2018-07-08T13:45:06.154Z,7.90
2018-07-08T13:47:34.487Z,9.80
2018-07-08T13:50:02.801Z,10.20
2018-07-08T13:52:31.035Z,8.37
2018-07-08T13:54:59.262Z,7.03
2018-07-08T13:57:27.717Z,8.60
2018-07-08T13:59:55.943Z,7.40
2018-07-08T14:02:24.217Z,6.20
2018-07-08T14:04:52.432Z,8.20
2018-07-08T14:07:20.731Z,10.93
2018-07-08T14:09:49.035Z,12.30
2018-07-08T14:12:17.315Z,10.40
2018-07-08T14:14:45.671Z,6.50
2018-07-08T14:17:13.901Z,16.00
2018-07-08T14:19:42.278Z,9.70
2018-07-08T14:22:10.585Z,10.70
2018-07-08T14:24:38.864Z,8.43
2018-07-08T14:27:07.231Z,11.77
2018-07-08T14:29:35.632Z,6.47
2018-07-08T14:32:03.921Z,9.20
2018-07-08T14:34:32.206Z,6.57
2018-07-08T14:37:00.535Z,11.40
2018-07-08T14:39:29.214Z,6.10
2018-07-08T14:41:57.432Z,6.53
2018-07-08T14:44:25.743Z,6.47
2018-07-08T14:46:54.071Z,6.33
2018-07-08T14:49:22.365Z,11.37
2018-07-08T14:51:50.596Z,6.13
2018-07-08T14:54:18.894Z,11.60
2018-07-08T14:56:47.147Z,6.23
2018-07-08T14:59:15.448Z,6.77
2018-07-08T15:01:43.719Z,19.13
2018-07-08T15:04:11.994Z,6.67
2018-07-08T15:06:40.338Z,7.00
2018-07-08T15:09:10.562Z,5.90
2018-07-08T15:11:38.964Z,6.70
2018-07-08T15:14:07.298Z,6.77
2018-07-08T15:16:35.684Z,6.80
2018-07-08T15:19:04.359Z,8.27
2018-07-08T15:21:32.675Z,8.13
2018-07-08T15:24:00.955Z,7.47
2018-07-08T15:26:29.270Z,14.10
2018-07-08T15:28:57.607Z,5.80
2018-07-08T15:31:25.838Z,6.47
2018-07-08T15:33:54.111Z,13.30
2018-07-08T15:36:22.435Z,6.93
2018-07-08T15:38:50.699Z,12.73
2018-07-08T15:41:19.004Z,7.07
2018-07-08T15:43:47.232Z,5.60
2018-07-08T15:46:15.443Z,7.43
2018-07-08T15:48:43.664Z,10.30
2018-07-08T15:51:11.883Z,5.70
2018-07-08T15:53:40.071Z,8.50
2018-07-08T15:56:08.367Z,5.50
2018-07-08T15:58:36.603Z,5.27
2018-07-08T16:01:04.855Z,4.83
2018-07-08T16:03:33.108Z,8.53
2018-07-08T16:06:01.399Z,7.73
2018-07-08T16:08:29.534Z,5.60
2018-07-08T16:10:57.783Z,5.33
2018-07-08T16:13:25.991Z,5.00
2018-07-08T16:15:54.215Z,9.90
2018-07-08T16:18:22.573Z,4.90
2018-07-08T16:20:50.690Z,5.03
2018-07-08T16:23:18.918Z,4.60
2018-07-08T16:25:47.130Z,8.90
2018-07-08T16:28:15.372Z,6.67
2018-07-08T16:30:43.588Z,7.13
2018-07-08T16:33:11.810Z,9.03
2018-07-08T16:35:44.890Z,7.53
2018-07-08T16:38:13.108Z,7.57
2018-07-08T16:40:41.435Z,4.70
2018-07-08T16:43:11.638Z,5.40
2018-07-08T16:45:39.863Z,9.87
2018-07-08T16:48:08.091Z,5.17
2018-07-08T16:50:36.277Z,10.90
2018-07-08T16:53:04.576Z,4.93
2018-07-08T16:55:32.907Z,5.90
2018-07-08T16:58:01.095Z,5.93
2018-07-08T17:00:29.308Z,7.63
2018-07-08T17:02:57.524Z,12.10
2018-07-08T17:05:25.732Z,5.97
2018-07-08T17:07:54.384Z,8.37
2018-07-08T17:10:22.586Z,5.60
2018-07-08T17:12:50.867Z,6.97
2018-07-08T17:15:19.764Z,12.87
2018-07-08T17:17:48.028Z,5.33
2018-07-08T17:20:16.234Z,5.77
2018-07-08T17:22:44.659Z,4.70
2018-07-08T17:25:12.874Z,5.33
2018-07-08T17:27:54.685Z,6.03
2018-07-08T17:30:26.495Z,6.30
2018-07-08T17:32:59.651Z,5.30
2018-07-08T17:35:28.976Z,5.00
2018-07-08T17:37:57.199Z,7.80
2018-07-08T17:40:25.395Z,5.77
2018-07-08T17:42:53.651Z,8.37
2018-07-08T17:45:21.851Z,6.63
2018-07-08T17:47:50.126Z,5.50
2018-07-08T17:50:18.335Z,5.40
2018-07-08T17:52:46.593Z,5.40
2018-07-08T17:55:14.815Z,8.83
2018-07-08T17:57:43.035Z,11.77
2018-07-08T18:00:11.271Z,5.43
2018-07-08T18:02:39.530Z,6.60
2018-07-08T18:05:07.795Z,5.30
2018-07-08T18:07:36.107Z,6.77
2018-07-08T18:10:04.350Z,5.87
2018-07-08T18:12:32.864Z,6.63
2018-07-08T18:15:01.160Z,12.73
2018-07-08T18:17:29.386Z,8.60
2018-07-08T18:19:57.634Z,6.57
2018-07-08T18:22:25.898Z,6.03
2018-07-08T18:24:54.176Z,7.13
2018-07-08T18:27:22.416Z,10.47
2018-07-08T18:29:51.247Z,7.20
2018-07-08T18:32:19.547Z,7.23
2018-07-08T18:34:47.874Z,6.03
2018-07-08T18:37:16.195Z,5.50
2018-07-08T18:39:45.033Z,7.37
2018-07-08T18:42:13.243Z,10.00
2018-07-08T18:44:41.936Z,5.40
2018-07-08T18:47:10.714Z,11.53
2018-07-08T18:49:38.982Z,5.33
2018-07-08T18:52:07.191Z,6.00
2018-07-08T18:54:35.419Z,6.20
2018-07-08T18:57:03.663Z,6.20
2018-07-08T18:59:33.716Z,5.70
2018-07-08T19:02:02.091Z,5.70
2018-07-08T19:04:30.783Z,5.33
2018-07-08T19:06:59.010Z,6.90
2018-07-08T19:09:27.246Z,5.70
2018-07-08T19:11:55.566Z,7.60
2018-07-08T19:14:23.779Z,8.93
2018-07-08T19:16:51.998Z,5.80
2018-07-08T19:19:20.259Z,8.00
2018-07-08T19:21:48.508Z,6.33
2018-07-08T19:24:16.755Z,7.80
2018-07-08T19:26:45.036Z,8.70
2018-07-08T19:29:13.259Z,5.40
2018-07-08T19:31:41.502Z,5.50
2018-07-08T19:34:09.822Z,8.33
2018-07-08T19:36:38.087Z,5.43
2018-07-08T19:39:08.185Z,7.10
2018-07-08T19:41:37.574Z,8.93
2018-07-08T19:44:07.714Z,10.70
2018-07-08T19:46:36.525Z,7.50
2018-07-08T19:49:04.828Z,6.60
2018-07-08T19:51:33.302Z,5.50
2018-07-08T19:54:02.196Z,7.30
2018-07-08T19:56:30.507Z,6.63
2018-07-08T19:58:59.235Z,5.93
2018-07-08T20:01:27.570Z,6.00
2018-07-08T20:03:56.394Z,12.73
2018-07-08T20:06:24.738Z,13.13
2018-07-08T20:08:53.163Z,5.97
2018-07-08T20:11:21.448Z,8.80
2018-07-08T20:13:49.765Z,6.70
2018-07-08T20:16:18.083Z,10.43
2018-07-08T20:18:46.370Z,8.20
2018-07-08T20:21:14.754Z,7.43
2018-07-08T20:23:42.831Z,7.90
2018-07-08T20:26:11.074Z,8.90
2018-07-08T20:28:39.335Z,5.57
2018-07-08T20:31:07.676Z,11.90
2018-07-08T20:33:35.890Z,8.10
2018-07-08T20:36:04.239Z,10.50
2018-07-08T20:38:32.517Z,8.60
2018-07-08T20:41:00.746Z,6.30
2018-07-08T20:43:28.996Z,9.17
2018-07-08T20:45:57.226Z,6.60
2018-07-08T20:48:25.460Z,6.60
2018-07-08T20:50:53.679Z,8.27
2018-07-08T20:53:21.911Z,6.30
2018-07-08T20:55:50.771Z,5.13
2018-07-08T20:58:20.167Z,5.87
2018-07-08T21:00:48.432Z,13.27
2018-07-08T21:03:16.886Z,15.03
2018-07-08T21:05:45.180Z,7.23
2018-07-08T21:08:13.499Z,8.63
2018-07-08T21:10:41.764Z,5.30
2018-07-08T21:13:10.007Z,8.80
2018-07-08T21:15:38.345Z,7.10
2018-07-08T21:18:06.635Z,8.63
2018-07-08T21:20:34.853Z,6.63
2018-07-08T21:23:03.110Z,10.30
2018-07-08T21:25:31.383Z,8.07
2018-07-08T21:28:00.302Z,7.50
2018-07-08T21:30:28.743Z,6.90
2018-07-08T21:32:56.982Z,5.27
2018-07-08T21:35:25.300Z,6.00
2018-07-08T21:37:53.821Z,10.63
2018-07-08T21:40:22.084Z,5.60
2018-07-08T21:42:50.323Z,5.90
2018-07-08T21:45:18.622Z,6.10
2018-07-08T21:47:46.867Z,6.00
2018-07-08T21:50:15.163Z,9.80
2018-07-08T21:52:43.408Z,5.53
2018-07-08T21:55:11.650Z,13.63
2018-07-08T21:57:39.922Z,6.33
2018-07-08T22:00:08.486Z,5.80
2018-07-08T22:02:36.851Z,5.70
2018-07-08T22:05:05.112Z,7.00
2018-07-08T22:07:38.783Z,5.53
2018-07-08T22:10:07.088Z,7.30
2018-07-08T22:12:35.295Z,5.73
2018-07-08T22:15:03.550Z,7.13
2018-07-08T22:17:31.753Z,9.33
2018-07-08T22:20:00.105Z,5.70
2018-07-08T22:22:28.347Z,5.40
2018-07-08T22:24:56.803Z,5.90
2018-07-08T22:27:25.294Z,5.33
2018-07-08T22:29:53.573Z,5.27
2018-07-08T22:32:21.758Z,5.40
2018-07-08T22:34:50.060Z,7.03
2018-07-08T22:37:19.119Z,5.77
2018-07-08T22:39:47.375Z,6.07
2018-07-08T22:42:15.605Z,6.90
2018-07-08T22:44:43.816Z,5.43
2018-07-08T22:47:12.168Z,13.13
2018-07-08T22:49:40.391Z,6.10
2018-07-08T22:52:08.613Z,9.03
2018-07-08T22:54:36.868Z,6.80
2018-07-08T22:57:05.092Z,5.90
2018-07-08T22:59:43.268Z,17.37
2018-07-08T23:02:22.842Z,6.00
2018-07-08T23:04:51.076Z,5.27
2018-07-08T23:07:19.283Z,4.97
2018-07-08T23:09:47.526Z,4.70
2018-07-08T23:12:15.743Z,4.70
2018-07-08T23:14:43.987Z,5.83
2018-07-08T23:17:12.250Z,5.20
2018-07-08T23:19:40.476Z,5.43
2018-07-08T23:22:08.699Z,5.37
2018-07-08T23:24:36.910Z,7.87
2018-07-08T23:27:05.410Z,5.07
2018-07-08T23:29:33.695Z,11.20
2018-07-08T23:32:01.905Z,7.23
2018-07-08T23:34:30.120Z,5.23
2018-07-08T23:36:58.311Z,5.60
2018-07-08T23:39:26.554Z,8.73
2018-07-08T23:41:54.798Z,5.33
2018-07-08T23:44:23.122Z,5.67
2018-07-08T23:46:51.345Z,9.13
2018-07-08T23:49:19.579Z,5.10
2018-07-08T23:51:47.835Z,5.90
2018-07-08T23:54:16.079Z,5.20
2018-07-08T23:56:44.299Z,9.47
2018-07-08T23:59:12.604Z,10.83
